首页
METAR-TAF:

METAR-TAF

机场 :

Evelyn Sharp Field

Ord, 內布拉斯加州, 美国

纬度: 41-37-27N, 经度: 098-57-09W, 海拔: 631米

当前天气观测

该预报发布于42分钟前的03:53 UTC
风速6节,风向
温度 3°C
湿度 81%
气压 1020 hPa
能見度: 16.1公里
少量云层高于1700英尺
阴天层高于4300英尺

METAR: KODX 140353Z AUTO 35006KT 10SM FEW017 OVC043 03/00 A3013 RMK AO2 SLP219 T00280000

时间: 22:35 (04:35 UTC)


TAF: 丢失

超过4000个机场的气象观测和天气预报(METAR&TAF报告)。

可查询的气象台以黄色和红色小点在地图上表示。

将鼠标移到小点上方,可查看气象台名称。

然后点击查看天气观测和预报。

如需切换地图:点击带黑十字的绿色按钮放大地图;点击带横线的绿色按钮缩小地图;或者点击绿色箭头查看邻近地区的地图。


METAR-TAF: